Impacts TAF Board
For situational awareness. Not to be used for flight planning purposes.
IDs:

KSTL - St Louis/Lambert Int, MO, US

Issued at 2121 UTC 19 Jan 2019
Updated at 2232 UTC 19 Jan 2019
Potential Impact None Slight Moderate High
Time<<20/23Z 21/00Z 21/01Z 21/02Z 21/03Z 21/04Z 21/05Z 21/06Z 21/07Z 21/08Z 21/09Z 21/10Z 21/11Z
Type PRVL
VIS >6
CIG 60
Cover BKN
FltCat VFR
WX --
WDir VRB
WSpd 4
WGst --
Raw TAF
KSTL 192121Z 1921/2024 35016G30KT P6SM -SN OVC012
  FM192300 35020G32KT P6SM OVC015
  FM200600 34014G22KT P6SM BKN020
  FM200800 33012G19KT P6SM SCT035
  FM201000 33011KT P6SM SCT250
  FM201800 VRB04KT P6SM BKN060


METAR Board
Radar Display
Forecast Discussion
For situational awareness. Not to be used for flight planning purposes.